METAR Data

Data at: 0650 UTC 28 Sep 2022

METAR for:CYQI (Yarmouth Arpt, NS, CA)
Text:CYQI 280647Z 21003KT 150V230 8SM SKC 14/13 A2991 RMK SLP130
Temperature: 14.0°C ( 57°F)
Dewpoint: 13.0°C ( 55°F) [RH = 94%]
Pressure (altimeter):29.91 inches Hg (1013.0 mb) [Sea level pressure: 1013.0 mb]
Winds:from the SSW (210 degrees) at 3 MPH (3 knots; 1.5 m/s)
Visibility: 8 sm ( 13 km)
Ceiling:at least 12,000 feet AGL
Clouds:clear skies